Terminal Aerodrome Forecast
Issued by NWS

Home | Current Version | Previous Version | Text Only | Print | Product List | Glossary On
Versions: 1 2 3 4 5 6 7 8 9 10 11 12 13 14 15 16
000
FTUS46 KMFR 051428 AAB
TAFLMT
TAF AMD
KLMT 051428Z 0514/0612 06003KT P6SM FEW002 FEW120
     FM051600 VRB03KT P6SM -SHRA BKN060 BKN120
     FM052000 33010KT P6SM -SHRA VCTS BKN050CB OVC100
     FM060400 VRB03KT P6SM -SHRA BKN030 OVC060=

USA.gov is the U.S. government's official web portal to all federal, state and local government web resources and services.